sensor_id;sensor_type;location;lat;lon;timestamp;pressure;altitude;pressure_sealevel;temperature;humidity
78562;BME280;68963;52.138;5.446;2024-01-27T00:00:27;103456.47;;;2.18;100.00
78562;BME280;68963;52.138;5.446;2024-01-27T00:02:53;103460.03;;;2.16;100.00
78562;BME280;68963;52.138;5.446;2024-01-27T00:05:20;103463.56;;;2.15;100.00
78562;BME280;68963;52.138;5.446;2024-01-27T00:07:47;103474.72;;;2.17;100.00
78562;BME280;68963;52.138;5.446;2024-01-27T00:10:14;103472.28;;;2.14;100.00
78562;BME280;68963;52.138;5.446;2024-01-27T00:12:40;103471.56;;;2.10;100.00
78562;BME280;68963;52.138;5.446;2024-01-27T00:15:07;103471.63;;;2.09;100.00
78562;BME280;68963;52.138;5.446;2024-01-27T00:17:35;103476.81;;;2.09;100.00
78562;BME280;68963;52.138;5.446;2024-01-27T00:20:02;103475.06;;;2.09;100.00
78562;BME280;68963;52.138;5.446;2024-01-27T00:22:30;103482.09;;;2.07;100.00
78562;BME280;68963;52.138;5.446;2024-01-27T00:24:56;103482.09;;;2.07;100.00
78562;BME280;68963;52.138;5.446;2024-01-27T00:27:23;103470.00;;;2.06;100.00
78562;BME280;68963;52.138;5.446;2024-01-27T00:29:50;103474.44;;;2.04;100.00
78562;BME280;68963;52.138;5.446;2024-01-27T00:32:16;103479.75;;;2.01;100.00
78562;BME280;68963;52.138;5.446;2024-01-27T00:34:43;103470.28;;;2.00;100.00
78562;BME280;68963;52.138;5.446;2024-01-27T00:37:10;103472.09;;;1.98;100.00
78562;BME280;68963;52.138;5.446;2024-01-27T00:39:36;103467.88;;;1.96;100.00
78562;BME280;68963;52.138;5.446;2024-01-27T00:42:03;103469.69;;;1.93;100.00
78562;BME280;68963;52.138;5.446;2024-01-27T00:44:30;103469.78;;;1.92;100.00
78562;BME280;68963;52.138;5.446;2024-01-27T00:46:57;103474.25;;;1.88;100.00
78562;BME280;68963;52.138;5.446;2024-01-27T00:49:23;103469.19;;;1.85;100.00
78562;BME280;68963;52.138;5.446;2024-01-27T00:51:50;103464.03;;;1.84;100.00
78562;BME280;68963;52.138;5.446;2024-01-27T00:54:16;103464.13;;;1.82;100.00
78562;BME280;68963;52.138;5.446;2024-01-27T00:56:43;103465.91;;;1.80;100.00
78562;BME280;68963;52.138;5.446;2024-01-27T00:59:10;103459.88;;;1.80;100.00
78562;BME280;68963;52.138;5.446;2024-01-27T01:01:36;103472.88;;;1.80;100.00
78562;BME280;68963;52.138;5.446;2024-01-27T01:04:03;103474.63;;;1.79;100.00
78562;BME280;68963;52.138;5.446;2024-01-27T01:06:30;103474.63;;;1.79;100.00
78562;BME280;68963;52.138;5.446;2024-01-27T01:08:56;103475.56;;;1.78;100.00
78562;BME280;68963;52.138;5.446;2024-01-27T01:11:23;103467.97;;;1.74;100.00
78562;BME280;68963;52.138;5.446;2024-01-27T01:13:50;103476.72;;;1.71;100.00
78562;BME280;68963;52.138;5.446;2024-01-27T01:16:17;103485.47;;;1.68;100.00
78562;BME280;68963;52.138;5.446;2024-01-27T01:18:43;103492.56;;;1.65;100.00
78562;BME280;68963;52.138;5.446;2024-01-27T01:21:10;103484.88;;;1.62;100.00
78562;BME280;68963;52.138;5.446;2024-01-27T01:23:36;103490.16;;;1.60;100.00
78562;BME280;68963;52.138;5.446;2024-01-27T01:26:03;103488.53;;;1.58;100.00
78562;BME280;68963;52.138;5.446;2024-01-27T01:28:29;103483.28;;;1.59;100.00
78562;BME280;68963;52.138;5.446;2024-01-27T01:30:58;103484.16;;;1.58;100.00
78562;BME280;68963;52.138;5.446;2024-01-27T01:33:24;103481.56;;;1.58;100.00
78562;BME280;68963;52.138;5.446;2024-01-27T01:35:51;103472.16;;;1.56;100.00
78562;BME280;68963;52.138;5.446;2024-01-27T01:38:17;103466.06;;;1.57;100.00
78562;BME280;68963;52.138;5.446;2024-01-27T01:40:44;103473.97;;;1.54;100.00
78562;BME280;68963;52.138;5.446;2024-01-27T01:43:11;103478.31;;;1.53;100.00
78562;BME280;68963;52.138;5.446;2024-01-27T01:45:40;103473.94;;;1.55;100.00
78562;BME280;68963;52.138;5.446;2024-01-27T01:48:07;103475.72;;;1.53;100.00
78562;BME280;68963;52.138;5.446;2024-01-27T01:50:35;103484.38;;;1.54;100.00
78562;BME280;68963;52.138;5.446;2024-01-27T01:53:02;103486.13;;;1.53;100.00
78562;BME280;68963;52.138;5.446;2024-01-27T01:55:29;103490.47;;;1.53;100.00
78562;BME280;68963;52.138;5.446;2024-01-27T01:57:56;103496.50;;;1.53;100.00
78562;BME280;68963;52.138;5.446;2024-01-27T02:00:22;103497.34;;;1.54;100.00
78562;BME280;68963;52.138;5.446;2024-01-27T02:02:49;103497.34;;;1.54;100.00
78562;BME280;68963;52.138;5.446;2024-01-27T02:05:16;103495.66;;;1.53;100.00
78562;BME280;68963;52.138;5.446;2024-01-27T02:07:42;103486.25;;;1.50;100.00
78562;BME280;68963;52.138;5.446;2024-01-27T02:10:14;103488.91;;;1.49;100.00
78562;BME280;68963;52.138;5.446;2024-01-27T02:12:43;103490.66;;;1.48;100.00
78562;BME280;68963;52.138;5.446;2024-01-27T02:15:11;103482.09;;;1.46;100.00
78562;BME280;68963;52.138;5.446;2024-01-27T02:17:40;103484.75;;;1.44;100.00
78562;BME280;68963;52.138;5.446;2024-01-27T02:20:07;103489.22;;;1.41;100.00
78562;BME280;68963;52.138;5.446;2024-01-27T02:22:34;103479.72;;;1.40;100.00
78562;BME280;68963;52.138;5.446;2024-01-27T02:25:04;103483.25;;;1.39;100.00
78562;BME280;68963;52.138;5.446;2024-01-27T02:27:31;103482.47;;;1.37;100.00
78562;BME280;68963;52.138;5.446;2024-01-27T02:29:57;103484.22;;;1.36;100.00
78562;BME280;68963;52.138;5.446;2024-01-27T02:32:24;103480.03;;;1.32;100.00
78562;BME280;68963;52.138;5.446;2024-01-27T02:34:51;103492.25;;;1.30;100.00
78562;BME280;68963;52.138;5.446;2024-01-27T02:37:18;103489.59;;;1.32;100.00
78562;BME280;68963;52.138;5.446;2024-01-27T02:39:45;103489.59;;;1.32;100.00
78562;BME280;68963;52.138;5.446;2024-01-27T02:42:12;103482.78;;;1.29;100.00
78562;BME280;68963;52.138;5.446;2024-01-27T02:44:38;103481.03;;;1.30;100.00
78562;BME280;68963;52.138;5.446;2024-01-27T02:47:05;103484.47;;;1.30;100.00
78562;BME280;68963;52.138;5.446;2024-01-27T02:49:32;103489.59;;;1.32;100.00
78562;BME280;68963;52.138;5.446;2024-01-27T02:51:58;103500.03;;;1.30;100.00
78562;BME280;68963;52.138;5.446;2024-01-27T02:54:25;103498.28;;;1.31;100.00
78562;BME280;68963;52.138;5.446;2024-01-27T02:56:52;103496.59;;;1.30;100.00
78562;BME280;68963;52.138;5.446;2024-01-27T02:59:18;103498.47;;;1.26;100.00
78562;BME280;68963;52.138;5.446;2024-01-27T03:01:45;103496.66;;;1.28;100.00
78562;BME280;68963;52.138;5.446;2024-01-27T03:04:11;103496.66;;;1.28;100.00
78562;BME280;68963;52.138;5.446;2024-01-27T03:06:38;103503.69;;;1.26;100.00
78562;BME280;68963;52.138;5.446;2024-01-27T03:09:05;103500.28;;;1.24;100.00
78562;BME280;68963;52.138;5.446;2024-01-27T03:11:32;103498.53;;;1.25;100.00
78562;BME280;68963;52.138;5.446;2024-01-27T03:13:58;103500.25;;;1.26;100.00
78562;BME280;68963;52.138;5.446;2024-01-27T03:16:25;103504.63;;;1.24;100.00
78562;BME280;68963;52.138;5.446;2024-01-27T03:18:51;103497.88;;;1.19;100.00
78562;BME280;68963;52.138;5.446;2024-01-27T03:21:18;103499.66;;;1.17;100.00
78562;BME280;68963;52.138;5.446;2024-01-27T03:23:45;103498.91;;;1.15;100.00
78562;BME280;68963;52.138;5.446;2024-01-27T03:26:11;103496.19;;;1.18;100.00
78562;BME280;68963;52.138;5.446;2024-01-27T03:28:38;103490.00;;;1.21;100.00
78562;BME280;68963;52.138;5.446;2024-01-27T03:31:04;103490.00;;;1.21;100.00
78562;BME280;68963;52.138;5.446;2024-01-27T03:33:31;103495.22;;;1.21;100.00
78562;BME280;68963;52.138;5.446;2024-01-27T03:35:57;103488.28;;;1.22;100.00
78562;BME280;68963;52.138;5.446;2024-01-27T03:38:24;103493.41;;;1.23;100.00
78562;BME280;68963;52.138;5.446;2024-01-27T03:40:51;103491.66;;;1.24;100.00
78562;BME280;68963;52.138;5.446;2024-01-27T03:43:17;103487.19;;;1.27;100.00
78562;BME280;68963;52.138;5.446;2024-01-27T03:45:44;103488.94;;;1.27;100.00
78562;BME280;68963;52.138;5.446;2024-01-27T03:48:11;103501.00;;;1.28;100.00
78562;BME280;68963;52.138;5.446;2024-01-27T03:50:38;103493.22;;;1.28;100.00
78562;BME280;68963;52.138;5.446;2024-01-27T03:53:05;103500.88;;;1.31;100.00
78562;BME280;68963;52.138;5.446;2024-01-27T03:55:31;103508.69;;;1.31;100.00
78562;BME280;68963;52.138;5.446;2024-01-27T03:57:58;103509.53;;;1.31;100.00
78562;BME280;68963;52.138;5.446;2024-01-27T04:00:25;103509.47;;;1.33;100.00
78562;BME280;68963;52.138;5.446;2024-01-27T04:02:56;103501.81;;;1.30;100.00
78562;BME280;68963;52.138;5.446;2024-01-27T04:05:22;103512.19;;;1.30;100.00
78562;BME280;68963;52.138;5.446;2024-01-27T04:07:49;103506.16;;;1.29;100.00
78562;BME280;68963;52.138;5.446;2024-01-27T04:10:18;103511.38;;;1.28;100.00
78562;BME280;68963;52.138;5.446;2024-01-27T04:12:45;103508.75;;;1.29;100.00
78562;BME280;68963;52.138;5.446;2024-01-27T04:15:11;103512.22;;;1.28;100.00
78562;BME280;68963;52.138;5.446;2024-01-27T04:17:38;103507.88;;;1.29;100.00
78562;BME280;68963;52.138;5.446;2024-01-27T04:20:05;103512.31;;;1.27;100.00
78562;BME280;68963;52.138;5.446;2024-01-27T04:22:34;103514.91;;;1.27;100.00
78562;BME280;68963;52.138;5.446;2024-01-27T04:25:01;103503.72;;;1.25;100.00
78562;BME280;68963;52.138;5.446;2024-01-27T04:27:28;103505.44;;;1.26;100.00
78562;BME280;68963;52.138;5.446;2024-01-27T04:29:55;103509.75;;;1.25;100.00
78562;BME280;68963;52.138;5.446;2024-01-27T04:32:21;103521.00;;;1.26;100.00
78562;BME280;68963;52.138;5.446;2024-01-27T04:34:49;103531.44;;;1.24;100.00
78562;BME280;68963;52.138;5.446;2024-01-27T04:37:15;103528.13;;;1.20;100.00
78562;BME280;68963;52.138;5.446;2024-01-27T04:39:42;103529.94;;;1.18;100.00
78562;BME280;68963;52.138;5.446;2024-01-27T04:42:08;103530.81;;;1.17;100.00
78562;BME280;68963;52.138;5.446;2024-01-27T04:44:35;103518.84;;;1.15;100.00
78562;BME280;68963;52.138;5.446;2024-01-27T04:47:06;103518.03;;;1.13;100.00
78562;BME280;68963;52.138;5.446;2024-01-27T04:49:33;103516.38;;;1.10;100.00
78562;BME280;68963;52.138;5.446;2024-01-27T04:52:00;103514.66;;;1.11;100.00
78562;BME280;68963;52.138;5.446;2024-01-27T04:54:26;103516.47;;;1.09;100.00
78562;BME280;68963;52.138;5.446;2024-01-27T04:56:53;103521.72;;;1.07;100.00
78562;BME280;68963;52.138;5.446;2024-01-27T04:59:19;103529.53;;;1.07;100.00
78562;BME280;68963;52.138;5.446;2024-01-27T05:01:46;103524.31;;;1.07;100.00
78562;BME280;68963;52.138;5.446;2024-01-27T05:04:13;103523.59;;;1.04;100.00
78562;BME280;68963;52.138;5.446;2024-01-27T05:06:43;103515.81;;;1.04;100.00
78562;BME280;68963;52.138;5.446;2024-01-27T05:09:10;103516.66;;;1.04;100.00
78562;BME280;68963;52.138;5.446;2024-01-27T05:11:37;103517.50;;;1.05;100.00
78562;BME280;68963;52.138;5.446;2024-01-27T05:14:04;103520.94;;;1.05;100.00
78562;BME280;68963;52.138;5.446;2024-01-27T05:16:30;103514.81;;;1.06;100.00
78562;BME280;68963;52.138;5.446;2024-01-27T05:18:58;103514.91;;;1.05;100.00
78562;BME280;68963;52.138;5.446;2024-01-27T05:21:25;103509.59;;;1.08;100.00
78562;BME280;68963;52.138;5.446;2024-01-27T05:23:51;103504.41;;;1.08;100.00
78562;BME280;68963;52.138;5.446;2024-01-27T05:26:18;103500.06;;;1.08;100.00
78562;BME280;68963;52.138;5.446;2024-01-27T05:28:45;103504.31;;;1.09;100.00
78562;BME280;68963;52.138;5.446;2024-01-27T05:31:11;103500.88;;;1.09;100.00
78562;BME280;68963;52.138;5.446;2024-01-27T05:33:38;103500.06;;;1.08;100.00
78562;BME280;68963;52.138;5.446;2024-01-27T05:36:06;103499.22;;;1.08;100.00
78562;BME280;68963;52.138;5.446;2024-01-27T05:38:33;103499.22;;;1.08;100.00
78562;BME280;68963;52.138;5.446;2024-01-27T05:41:02;103498.38;;;1.07;100.00
78562;BME280;68963;52.138;5.446;2024-01-27T05:43:29;103498.41;;;1.06;100.00
78562;BME280;68963;52.138;5.446;2024-01-27T05:45:56;103503.59;;;1.06;100.00
78562;BME280;68963;52.138;5.446;2024-01-27T05:48:22;103492.38;;;1.05;100.00
78562;BME280;68963;52.138;5.446;2024-01-27T05:50:59;103495.06;;;1.04;100.00
78562;BME280;68963;52.138;5.446;2024-01-27T05:53:27;103506.38;;;1.01;100.00
78562;BME280;68963;52.138;5.446;2024-01-27T05:55:54;103499.50;;;1.00;100.00
78562;BME280;68963;52.138;5.446;2024-01-27T05:58:20;103500.41;;;0.99;100.00
78562;BME280;68963;52.138;5.446;2024-01-27T06:00:48;103501.28;;;1.00;100.00
78562;BME280;68963;52.138;5.446;2024-01-27T06:03:14;103498.72;;;0.98;100.00
78562;BME280;68963;52.138;5.446;2024-01-27T06:05:41;103497.88;;;0.98;100.00
78562;BME280;68963;52.138;5.446;2024-01-27T06:08:09;103494.44;;;0.97;100.00
78562;BME280;68963;52.138;5.446;2024-01-27T06:10:35;103491.88;;;0.95;100.00
78562;BME280;68963;52.138;5.446;2024-01-27T06:13:05;103500.41;;;0.99;100.00
78562;BME280;68963;52.138;5.446;2024-01-27T06:15:31;103506.38;;;1.01;100.00
78562;BME280;68963;52.138;5.446;2024-01-27T06:17:59;103509.91;;;1.00;100.00
78562;BME280;68963;52.138;5.446;2024-01-27T06:20:25;103511.66;;;1.00;100.00
78562;BME280;68963;52.138;5.446;2024-01-27T06:22:52;103510.72;;;1.01;100.00
78562;BME280;68963;52.138;5.446;2024-01-27T06:25:20;103510.72;;;1.01;100.00
78562;BME280;68963;52.138;5.446;2024-01-27T06:27:47;103510.72;;;1.01;100.00
78562;BME280;68963;52.138;5.446;2024-01-27T06:30:15;103494.38;;;0.99;100.00
78562;BME280;68963;52.138;5.446;2024-01-27T06:32:42;103505.59;;;0.99;100.00
78562;BME280;68963;52.138;5.446;2024-01-27T06:35:09;103506.47;;;1.00;100.00
78562;BME280;68963;52.138;5.446;2024-01-27T06:37:36;103511.69;;;0.98;100.00
78562;BME280;68963;52.138;5.446;2024-01-27T06:40:04;103512.53;;;0.99;100.00
78562;BME280;68963;52.138;5.446;2024-01-27T06:42:31;103508.25;;;0.98;100.00
78562;BME280;68963;52.138;5.446;2024-01-27T06:44:58;103509.09;;;0.98;100.00
78562;BME280;68963;52.138;5.446;2024-01-27T06:47:24;103513.50;;;0.96;100.00
78562;BME280;68963;52.138;5.446;2024-01-27T06:49:51;103512.78;;;0.92;100.00
78562;BME280;68963;52.138;5.446;2024-01-27T06:52:17;103508.47;;;0.91;100.00
78562;BME280;68963;52.138;5.446;2024-01-27T06:54:44;103507.72;;;0.89;100.00
78562;BME280;68963;52.138;5.446;2024-01-27T06:57:20;103517.25;;;0.89;100.00
78562;BME280;68963;52.138;5.446;2024-01-27T06:59:51;103515.59;;;0.86;100.00
78562;BME280;68963;52.138;5.446;2024-01-27T07:02:23;103518.19;;;0.86;100.00
78562;BME280;68963;52.138;5.446;2024-01-27T07:04:50;103518.31;;;0.83;100.00
78562;BME280;68963;52.138;5.446;2024-01-27T07:07:19;103512.41;;;0.80;100.00
78562;BME280;68963;52.138;5.446;2024-01-27T07:09:48;103522.78;;;0.80;100.00
78562;BME280;68963;52.138;5.446;2024-01-27T07:12:14;103528.88;;;0.79;100.00
78562;BME280;68963;52.138;5.446;2024-01-27T07:14:41;103531.47;;;0.79;100.00
78562;BME280;68963;52.138;5.446;2024-01-27T07:17:07;103534.91;;;0.79;100.00
78562;BME280;68963;52.138;5.446;2024-01-27T07:19:34;103534.91;;;0.79;100.00
78562;BME280;68963;52.138;5.446;2024-01-27T07:22:00;103542.69;;;0.79;100.00
78562;BME280;68963;52.138;5.446;2024-01-27T07:24:27;103546.19;;;0.78;100.00
78562;BME280;68963;52.138;5.446;2024-01-27T07:26:53;103545.28;;;0.79;100.00
78562;BME280;68963;52.138;5.446;2024-01-27T07:29:21;103554.81;;;0.79;100.00
78562;BME280;68963;52.138;5.446;2024-01-27T07:31:49;103541.03;;;0.77;100.00
78562;BME280;68963;52.138;5.446;2024-01-27T07:34:16;103546.19;;;0.78;100.00
78562;BME280;68963;52.138;5.446;2024-01-27T07:36:43;103557.34;;;0.80;100.00
78562;BME280;68963;52.138;5.446;2024-01-27T07:39:10;103551.31;;;0.80;100.00
78562;BME280;68963;52.138;5.446;2024-01-27T07:41:37;103543.53;;;0.80;100.00
78562;BME280;68963;52.138;5.446;2024-01-27T07:44:10;103548.72;;;0.80;100.00
78562;BME280;68963;52.138;5.446;2024-01-27T07:46:41;103565.91;;;0.82;100.00
78562;BME280;68963;52.138;5.446;2024-01-27T07:49:08;103558.91;;;0.84;100.00
78562;BME280;68963;52.138;5.446;2024-01-27T07:51:35;103563.16;;;0.87;100.00
78562;BME280;68963;52.138;5.446;2024-01-27T07:54:02;103563.16;;;0.87;100.00
78562;BME280;68963;52.138;5.446;2024-01-27T07:56:29;103555.25;;;0.90;100.00
78562;BME280;68963;52.138;5.446;2024-01-27T07:58:55;103562.09;;;0.92;100.00
78562;BME280;68963;52.138;5.446;2024-01-27T08:01:22;103568.84;;;0.96;100.00
78562;BME280;68963;52.138;5.446;2024-01-27T08:03:49;103555.69;;;1.01;100.00
78562;BME280;68963;52.138;5.446;2024-01-27T08:06:17;103565.13;;;1.04;100.00
78562;BME280;68963;52.138;5.446;2024-01-27T08:08:46;103574.47;;;1.08;100.00
78562;BME280;68963;52.138;5.446;2024-01-27T08:11:14;103574.38;;;1.11;100.00
78562;BME280;68963;52.138;5.446;2024-01-27T08:13:43;103574.13;;;1.17;100.00
78562;BME280;68963;52.138;5.446;2024-01-27T08:16:10;103566.94;;;1.24;100.00
78562;BME280;68963;52.138;5.446;2024-01-27T08:18:39;103571.09;;;1.28;100.00
78562;BME280;68963;52.138;5.446;2024-01-27T08:21:06;103569.97;;;1.35;100.00
78562;BME280;68963;52.138;5.446;2024-01-27T08:23:32;103577.63;;;1.38;100.00
78562;BME280;68963;52.138;5.446;2024-01-27T08:25:59;103577.41;;;1.44;100.00
78562;BME280;68963;52.138;5.446;2024-01-27T08:28:26;103579.75;;;1.50;100.00
78562;BME280;68963;52.138;5.446;2024-01-27T08:30:52;103574.44;;;1.53;100.00
78562;BME280;68963;52.138;5.446;2024-01-27T08:33:19;103569.00;;;1.59;100.00
78562;BME280;68963;52.138;5.446;2024-01-27T08:35:46;103576.69;;;1.62;100.00
78562;BME280;68963;52.138;5.446;2024-01-27T08:38:14;103572.19;;;1.66;100.00
78562;BME280;68963;52.138;5.446;2024-01-27T08:40:41;103578.03;;;1.71;100.00
78562;BME280;68963;52.138;5.446;2024-01-27T08:43:08;103575.22;;;1.77;100.00
78562;BME280;68963;52.138;5.446;2024-01-27T08:45:39;103576.78;;;1.81;100.00
78562;BME280;68963;52.138;5.446;2024-01-27T08:48:07;103571.31;;;1.87;100.00
78562;BME280;68963;52.138;5.446;2024-01-27T08:50:34;103576.25;;;1.93;100.00
78562;BME280;68963;52.138;5.446;2024-01-27T08:53:00;103577.69;;;2.01;100.00
78562;BME280;68963;52.138;5.446;2024-01-27T08:55:27;103580.94;;;2.06;100.00
78562;BME280;68963;52.138;5.446;2024-01-27T08:57:56;103574.56;;;2.13;100.00
78562;BME280;68963;52.138;5.446;2024-01-27T09:00:22;103569.91;;;2.21;100.00
78562;BME280;68963;52.138;5.446;2024-01-27T09:02:51;103590.44;;;2.27;100.00
78562;BME280;68963;52.138;5.446;2024-01-27T09:05:18;103578.22;;;2.29;100.00
78562;BME280;68963;52.138;5.446;2024-01-27T09:07:45;103586.72;;;2.33;100.00
78562;BME280;68963;52.138;5.446;2024-01-27T09:10:12;103584.06;;;2.34;100.00
78562;BME280;68963;52.138;5.446;2024-01-27T09:12:42;103587.50;;;2.35;100.00
78562;BME280;68963;52.138;5.446;2024-01-27T09:15:09;103583.41;;;2.29;100.00
78562;BME280;68963;52.138;5.446;2024-01-27T09:17:36;103583.41;;;2.29;100.00
78562;BME280;68963;52.138;5.446;2024-01-27T09:20:03;103583.41;;;2.29;100.00
78562;BME280;68963;52.138;5.446;2024-01-27T09:22:30;103601.53;;;2.31;100.00
78562;BME280;68963;52.138;5.446;2024-01-27T09:24:57;103593.88;;;2.28;100.00
78562;BME280;68963;52.138;5.446;2024-01-27T09:27:24;103599.03;;;2.29;100.00
78562;BME280;68963;52.138;5.446;2024-01-27T09:29:50;103592.91;;;2.30;100.00
78562;BME280;68963;52.138;5.446;2024-01-27T09:32:17;103591.00;;;2.34;100.00
78562;BME280;68963;52.138;5.446;2024-01-27T09:34:44;103591.72;;;2.37;100.00
78562;BME280;68963;52.138;5.446;2024-01-27T09:37:11;103605.44;;;2.41;100.00
78562;BME280;68963;52.138;5.446;2024-01-27T09:39:37;103615.53;;;2.49;100.00
78562;BME280;68963;52.138;5.446;2024-01-27T09:42:06;103610.09;;;2.53;100.00
78562;BME280;68963;52.138;5.446;2024-01-27T09:44:35;103619.53;;;2.56;100.00
78562;BME280;68963;52.138;5.446;2024-01-27T09:47:02;103621.22;;;2.57;100.00
78562;BME280;68963;52.138;5.446;2024-01-27T09:49:29;103618.38;;;2.63;100.00
78562;BME280;68963;52.138;5.446;2024-01-27T09:51:59;103625.03;;;2.69;100.00
78562;BME280;68963;52.138;5.446;2024-01-27T09:54:25;103633.50;;;2.74;100.00
78562;BME280;68963;52.138;5.446;2024-01-27T09:56:54;103640.28;;;2.78;100.00
78562;BME280;68963;52.138;5.446;2024-01-27T09:59:22;103635.66;;;2.84;100.00
78562;BME280;68963;52.138;5.446;2024-01-27T10:01:49;103632.56;;;2.95;100.00
78562;BME280;68963;52.138;5.446;2024-01-27T10:04:19;103635.88;;;2.99;100.00
78562;BME280;68963;52.138;5.446;2024-01-27T10:06:47;103646.06;;;3.03;100.00
78562;BME280;68963;52.138;5.446;2024-01-27T10:09:14;103654.34;;;3.13;100.00
78562;BME280;68963;52.138;5.446;2024-01-27T10:11:46;103648.91;;;3.18;100.00
78562;BME280;68963;52.138;5.446;2024-01-27T10:14:13;103653.91;;;3.22;100.00
78562;BME280;68963;52.138;5.446;2024-01-27T10:16:44;103637.91;;;3.30;100.00
78562;BME280;68963;52.138;5.446;2024-01-27T10:19:18;103636.84;;;3.34;100.00
78562;BME280;68963;52.138;5.446;2024-01-27T10:21:45;103644.38;;;3.40;100.00
78562;BME280;68963;52.138;5.446;2024-01-27T10:24:13;103645.94;;;3.44;100.00
78562;BME280;68963;52.138;5.446;2024-01-27T10:26:40;103647.47;;;3.48;100.00
78562;BME280;68963;52.138;5.446;2024-01-27T10:29:08;103638.69;;;3.51;100.00
78562;BME280;68963;52.138;5.446;2024-01-27T10:31:34;103645.44;;;3.55;100.00
78562;BME280;68963;52.138;5.446;2024-01-27T10:34:02;103653.09;;;3.58;100.00
78562;BME280;68963;52.138;5.446;2024-01-27T10:36:38;103662.47;;;3.62;100.00
78562;BME280;68963;52.138;5.446;2024-01-27T10:39:22;103660.94;;;3.75;100.00
78562;BME280;68963;52.138;5.446;2024-01-27T10:41:51;103664.25;;;3.79;100.00
78562;BME280;68963;52.138;5.446;2024-01-27T10:44:19;103667.56;;;3.82;100.00
78562;BME280;68963;52.138;5.446;2024-01-27T10:46:48;103660.44;;;3.86;100.00
78562;BME280;68963;52.138;5.446;2024-01-27T10:49:16;103661.84;;;3.93;100.00
78562;BME280;68963;52.138;5.446;2024-01-27T10:51:51;103648.66;;;3.96;100.00
78562;BME280;68963;52.138;5.446;2024-01-27T10:54:23;103654.47;;;4.01;100.00
78562;BME280;68963;52.138;5.446;2024-01-27T10:56:53;103647.53;;;4.02;100.00
78562;BME280;68963;52.138;5.446;2024-01-27T10:59:21;103641.38;;;4.03;100.00
78562;BME280;68963;52.138;5.446;2024-01-27T11:01:49;103631.47;;;4.09;100.00
78562;BME280;68963;52.138;5.446;2024-01-27T11:04:20;103632.88;;;4.17;100.00
78562;BME280;68963;52.138;5.446;2024-01-27T11:06:48;103636.09;;;4.22;100.00
78562;BME280;68963;52.138;5.446;2024-01-27T11:09:15;103634.06;;;4.27;100.00
78562;BME280;68963;52.138;5.446;2024-01-27T11:11:45;103638.84;;;4.36;100.00
78562;BME280;68963;52.138;5.446;2024-01-27T11:14:12;103635.84;;;4.44;100.00
78562;BME280;68963;52.138;5.446;2024-01-27T11:16:39;103631.31;;;4.47;100.00
78562;BME280;68963;52.138;5.446;2024-01-27T11:19:13;103635.53;;;4.50;100.00
78562;BME280;68963;52.138;5.446;2024-01-27T11:21:40;103633.66;;;4.52;100.00
78562;BME280;68963;52.138;5.446;2024-01-27T11:24:17;103632.28;;;4.62;100.00
78562;BME280;68963;52.138;5.446;2024-01-27T11:26:44;103633.66;;;4.69;100.00
78562;BME280;68963;52.138;5.446;2024-01-27T11:29:11;103631.88;;;4.70;100.00
78562;BME280;68963;52.138;5.446;2024-01-27T11:31:46;103628.28;;;4.72;100.00
78562;BME280;68963;52.138;5.446;2024-01-27T11:34:14;103617.47;;;4.78;100.00
78562;BME280;68963;52.138;5.446;2024-01-27T11:36:44;103624.06;;;4.85;100.00
78562;BME280;68963;52.138;5.446;2024-01-27T11:39:28;103623.22;;;4.85;100.00
78562;BME280;68963;52.138;5.446;2024-01-27T11:44:37;103613.88;;;4.97;100.00
78562;BME280;68963;52.138;5.446;2024-01-27T11:47:05;103607.75;;;4.98;100.00
78562;BME280;68963;52.138;5.446;2024-01-27T11:49:32;103614.41;;;5.03;100.00
78562;BME280;68963;52.138;5.446;2024-01-27T11:52:00;103604.16;;;5.16;100.00
78562;BME280;68963;52.138;5.446;2024-01-27T11:54:26;103593.44;;;5.21;100.00
78562;BME280;68963;52.138;5.446;2024-01-27T11:56:53;103597.72;;;5.22;100.00
78562;BME280;68963;52.138;5.446;2024-01-27T11:59:21;103587.00;;;5.26;100.00
78562;BME280;68963;52.138;5.446;2024-01-27T12:01:48;103594.47;;;5.34;100.00
78562;BME280;68963;52.138;5.446;2024-01-27T12:04:15;103596.44;;;5.45;100.00
78562;BME280;68963;52.138;5.446;2024-01-27T12:06:43;103596.09;;;5.51;100.00
78562;BME280;68963;52.138;5.446;2024-01-27T12:09:10;103592.22;;;5.58;100.00
78562;BME280;68963;52.138;5.446;2024-01-27T12:11:39;103593.66;;;5.64;100.00
78562;BME280;68963;52.138;5.446;2024-01-27T12:14:07;103600.22;;;5.71;100.00
78562;BME280;68963;52.138;5.446;2024-01-27T12:16:34;103591.50;;;5.70;100.00
78562;BME280;68963;52.138;5.446;2024-01-27T12:19:01;103594.56;;;5.78;100.00
78562;BME280;68963;52.138;5.446;2024-01-27T12:21:28;103587.44;;;5.80;100.00
78562;BME280;68963;52.138;5.446;2024-01-27T12:23:56;103587.16;;;5.85;100.00
78562;BME280;68963;52.138;5.446;2024-01-27T12:26:29;103586.31;;;5.85;100.00
78562;BME280;68963;52.138;5.446;2024-01-27T12:28:57;103581.88;;;5.87;100.00
78562;BME280;68963;52.138;5.446;2024-01-27T12:31:26;103580.09;;;5.87;100.00
78562;BME280;68963;52.138;5.446;2024-01-27T12:33:55;103586.56;;;5.96;100.00
78562;BME280;68963;52.138;5.446;2024-01-27T12:36:23;103584.38;;;6.04;100.00
78562;BME280;68963;52.138;5.446;2024-01-27T12:39:01;103578.69;;;6.12;100.00
78562;BME280;68963;52.138;5.446;2024-01-27T12:41:28;103576.72;;;6.15;100.00
78562;BME280;68963;52.138;5.446;2024-01-27T12:43:56;103584.38;;;6.18;100.00
78562;BME280;68963;52.138;5.446;2024-01-27T12:46:23;103591.03;;;6.24;100.00
78562;BME280;68963;52.138;5.446;2024-01-27T12:48:50;103599.25;;;6.32;100.00
78562;BME280;68963;52.138;5.446;2024-01-27T12:51:17;103592.19;;;6.34;100.00
78562;BME280;68963;52.138;5.446;2024-01-27T12:53:44;103594.78;;;6.34;100.00